Time;durP1;ratioP1;P1;durP2;ratioP2;P2;SDS_P1;SDS_P2;PMS_P1;PMS_P2;Temp;Humidity;BMP_temperature;BMP_pressure;BME280_temperature;BME280_humidity;BME280_pressure;Samples;Min_cycle;Max_cycle;Signal;HPM_P1;HPM_P2
2021/11/04 00:00:26;;;;;;;;;33.75;33.00;;;;;13.17;97.05;101892.81;5033924;28;10677;-71
2021/11/04 00:03:21;;;;;;;;;35.50;33.00;;;;;13.18;96.83;101899.19;5033942;28;10764;-71
2021/11/04 00:06:17;;;;;;;;;34.75;33.25;;;;;13.04;97.03;101897.34;5033330;28;10606;-71
2021/11/04 00:09:12;;;;;;;;;39.25;37.25;;;;;13.06;97.41;101908.13;5032223;28;10734;-71
2021/11/04 00:12:09;;;;;;;;;39.50;35.25;;;;;13.12;97.28;101909.63;5033867;28;10777;-71
2021/11/04 00:15:05;;;;;;;;;43.75;39.00;;;;;13.07;97.31;101910.56;5033563;28;10817;-71
2021/11/04 00:18:01;;;;;;;;;39.50;36.25;;;;;13.04;97.67;101921.50;5033643;28;11613;-71
2021/11/04 00:20:57;;;;;;;;;31.50;31.50;;;;;13.06;97.49;101919.22;5033653;28;10871;-71
2021/11/04 00:23:44;;;;;;;;;42.75;36.75;;;;;13.00;97.72;101918.53;5032864;28;10534;-71
2021/11/04 00:26:40;;;;;;;;;33.25;32.75;;;;;13.03;97.59;101937.34;5034587;28;10771;-71
2021/11/04 00:29:36;;;;;;;;;37.00;34.25;;;;;13.03;97.42;101936.50;5033581;28;10689;-71
2021/11/04 00:32:32;;;;;;;;;34.25;31.25;;;;;12.97;97.93;101944.19;5044279;28;10836;-71
2021/11/04 00:35:28;;;;;;;;;38.25;36.25;;;;;13.02;97.97;101946.81;5044068;28;10624;-71
2021/11/04 00:38:24;;;;;;;;;37.75;34.00;;;;;13.08;97.83;101948.31;5034729;28;10771;-71
2021/11/04 00:41:00;;;;;;;;;37.00;33.75;;;;;13.20;97.60;101946.97;5033708;28;10701;-71
2021/11/04 00:43:58;;;;;;;;;37.75;36.50;;;;;13.08;97.53;101950.28;5044227;28;10763;-70
2021/11/04 00:46:54;;;;;;;;;37.75;34.25;;;;;13.11;97.63;101965.47;5033040;28;10825;-71
2021/11/04 00:49:49;;;;;;;;;31.50;31.25;;;;;13.12;97.57;101954.06;5034719;28;11516;-71
2021/11/04 00:52:45;;;;;;;;;38.00;35.00;;;;;13.06;97.50;101947.00;5033044;28;10784;-71
2021/11/04 00:55:41;;;;;;;;;39.00;36.75;;;;;13.05;97.73;101960.06;5043798;28;11433;-71
2021/11/04 00:58:36;;;;;;;;;42.00;38.50;;;;;13.18;97.33;101963.06;5031520;28;11594;-71
2021/11/04 01:01:32;;;;;;;;;43.75;38.00;;;;;13.04;97.16;101958.44;5032846;28;10777;-71
2021/11/04 01:04:27;;;;;;;;;38.50;36.00;;;;;13.09;97.44;101963.03;5031532;28;10761;-71
2021/11/04 01:07:23;;;;;;;;;37.75;36.00;;;;;13.07;97.25;101963.34;5011382;28;10677;-70
2021/11/04 01:10:18;;;;;;;;;40.75;37.50;;;;;13.07;97.27;101960.56;5014452;28;10986;-71
2021/11/04 01:13:14;;;;;;;;;35.00;34.25;;;;;13.15;96.85;101956.22;5014391;28;11600;-71
2021/11/04 01:16:09;;;;;;;;;43.50;39.00;;;;;13.12;96.87;101951.28;5012764;28;10778;-71
2021/11/04 01:19:06;;;;;;;;;35.50;33.50;;;;;13.14;96.83;101942.63;5014565;28;10894;-71
2021/11/04 01:22:02;;;;;;;;;33.25;32.50;;;;;13.12;97.05;101947.69;5012954;28;10761;-71
2021/11/04 01:24:58;;;;;;;;;45.25;37.50;;;;;13.10;97.26;101945.22;5024301;28;11610;-71
2021/11/04 01:27:53;;;;;;;;;35.50;33.25;;;;;13.11;97.20;101946.84;5032634;28;10768;-71
2021/11/04 01:30:49;;;;;;;;;42.00;34.75;;;;;13.17;96.60;101942.00;5032657;28;10707;-71
2021/11/04 01:33:44;;;;;;;;;38.75;36.50;;;;;13.24;96.38;101946.00;5033348;28;10698;-70
2021/11/04 01:36:12;;;;;;;;;39.00;35.75;;;;;13.24;96.01;101954.31;5036531;28;10786;-71
2021/11/04 01:39:08;;;;;;;;;43.75;37.75;;;;;13.19;96.77;101964.72;5036406;28;10926;-71
2021/11/04 01:42:04;;;;;;;;;57.50;44.75;;;;;13.16;96.81;101966.16;5036440;28;10678;-71
2021/11/04 01:44:59;;;;;;;;;46.00;40.00;;;;;13.15;97.04;101972.06;5034719;28;11121;-71
2021/11/04 01:47:55;;;;;;;;;45.75;40.00;;;;;13.16;96.87;101976.47;5036458;28;10983;-71
2021/11/04 01:50:24;;;;;;;;;45.00;39.00;;;;;13.23;96.69;101982.44;5035350;28;11079;-71
2021/11/04 01:53:00;;;;;;;;;47.75;40.75;;;;;13.23;96.09;101980.47;5036923;28;10876;-71
2021/11/04 01:55:56;;;;;;;;;45.50;40.25;;;;;13.18;96.00;101982.53;5036251;28;11095;-71
2021/11/04 01:58:52;;;;;;;;;43.50;37.25;;;;;13.18;96.00;101977.78;5034742;28;11018;-71
2021/11/04 02:02:00;;;;;;;;;47.25;38.50;;;;;13.14;95.95;101990.69;5036914;28;11032;-71
2021/11/04 02:05:04;;;;;;;;;39.75;37.75;;;;;13.11;96.01;101991.28;5035801;28;11097;-71
2021/11/04 02:08:16;;;;;;;;;38.75;37.00;;;;;13.00;96.71;101993.50;5034558;28;10825;-71
2021/11/04 02:11:20;;;;;;;;;40.75;36.50;;;;;12.98;97.39;101997.75;5036054;28;10796;-71
2021/11/04 02:14:29;;;;;;;;;39.75;35.75;;;;;12.96;97.35;101995.31;5035754;28;10677;-71
2021/11/04 02:17:26;;;;;;;;;40.50;37.75;;;;;12.91;97.88;101994.59;5034189;28;10667;-71
2021/11/04 02:21:04;;;;;;;;;36.75;35.50;;;;;12.94;98.05;102005.06;5035797;28;10660;-71
2021/11/04 02:24:08;;;;;;;;;37.50;34.25;;;;;12.94;98.16;102005.06;5027462;28;10745;-71
2021/11/04 02:27:07;;;;;;;;;32.25;31.50;;;;;12.98;97.97;102009.69;5035462;28;10941;-70
2021/11/04 02:30:04;;;;;;;;;34.75;31.00;;;;;13.03;97.29;102011.50;5034092;28;10579;-71
2021/11/04 02:33:00;;;;;;;;;46.50;38.00;;;;;12.98;97.34;102015.25;5035461;28;10567;-71
2021/11/04 02:35:58;;;;;;;;;37.75;35.75;;;;;13.00;97.65;102026.03;5035316;28;10943;-71
2021/11/04 02:38:54;;;;;;;;;33.75;33.75;;;;;12.97;97.95;102030.25;5035538;28;11008;-71
2021/11/04 02:41:50;;;;;;;;;39.75;36.25;;;;;12.93;97.35;102022.88;5035657;28;10819;-71
2021/11/04 02:44:46;;;;;;;;;37.25;34.00;;;;;12.92;97.72;102035.09;5035470;28;11059;-71
2021/11/04 02:47:42;;;;;;;;;37.75;35.50;;;;;12.97;97.44;102041.38;5035230;28;10757;-71
2021/11/04 02:50:38;;;;;;;;;35.50;34.25;;;;;12.92;98.15;102054.53;5035324;28;10731;-71
2021/11/04 02:53:35;;;;;;;;;40.00;36.75;;;;;12.88;97.92;102050.75;5035359;28;10678;-71
2021/11/04 02:56:45;;;;;;;;;43.50;35.50;;;;;12.90;97.55;102062.38;5035779;28;10997;-72
2021/11/04 02:59:41;;;;;;;;;39.50;37.00;;;;;12.87;98.03;102061.03;5036704;28;10924;-72
2021/11/04 03:02:36;;;;;;;;;32.50;32.50;;;;;12.86;98.07;102058.56;5036666;28;10909;-72
2021/11/04 03:05:04;;;;;;;;;38.00;35.00;;;;;12.93;97.85;102062.56;5035272;28;10675;-72
2021/11/04 03:08:00;;;;;;;;;35.25;34.75;;;;;12.93;98.03;102054.22;5035085;28;10748;-71
2021/11/04 03:10:56;;;;;;;;;36.75;35.50;;;;;12.95;98.17;102054.72;5034973;28;10721;-71
2021/11/04 03:13:51;;;;;;;;;46.75;40.75;;;;;12.92;98.18;102063.69;5035572;28;10596;-71
2021/11/04 03:16:50;;;;;;;;;38.25;35.50;;;;;12.92;97.93;102049.81;5033129;28;10811;-71
2021/11/04 03:19:48;;;;;;;;;45.75;40.50;;;;;12.92;97.85;102046.22;5034771;28;10624;-71
2021/11/04 03:22:46;;;;;;;;;33.50;32.75;;;;;12.92;98.03;102044.25;5034764;28;10898;-71
2021/11/04 03:25:45;;;;;;;;;32.00;32.00;;;;;12.94;98.20;102053.09;5034593;28;10964;-71
2021/11/04 03:28:43;;;;;;;;;38.75;37.00;;;;;12.94;98.12;102052.28;5034650;28;11258;-71
2021/11/04 03:31:42;;;;;;;;;35.00;34.00;;;;;12.96;98.15;102048.06;5034540;28;10824;-71
2021/11/04 03:34:38;;;;;;;;;36.75;35.75;;;;;12.95;98.29;102046.41;5035186;28;10671;-70
2021/11/04 03:37:36;;;;;;;;;42.50;36.50;;;;;12.95;98.50;102054.72;5034476;28;10753;-72
2021/11/04 03:40:33;;;;;;;;;26.25;22.75;;;;;12.90;99.04;102059.59;5035795;28;10905;-72
2021/11/04 03:43:30;;;;;;;;;36.75;34.50;;;;;13.02;98.46;102076.50;5034265;28;10831;-72
2021/11/04 03:46:26;;;;;;;;;41.75;38.25;;;;;13.04;98.13;102079.81;5034250;28;10722;-72
2021/11/04 03:49:24;;;;;;;;;43.00;37.25;;;;;13.02;97.85;102082.88;5034230;28;10919;-72
2021/11/04 03:52:20;;;;;;;;;43.75;37.50;;;;;13.04;97.60;102088.97;5035558;28;10926;-72
2021/11/04 03:55:17;;;;;;;;;35.25;33.25;;;;;13.05;97.95;102104.50;5034015;28;10828;-72
2021/11/04 03:58:13;;;;;;;;;40.75;38.00;;;;;13.00;97.78;102112.13;5031409;28;10814;-72
2021/11/04 04:01:09;;;;;;;;;36.75;35.75;;;;;13.09;97.71;102116.59;5035503;28;10832;-72
2021/11/04 04:04:07;;;;;;;;;44.50;37.25;;;;;13.05;97.64;102112.00;5035272;28;10655;-72
2021/11/04 04:07:03;;;;;;;;;42.00;39.00;;;;;13.08;97.59;102109.41;5032119;28;10721;-72
2021/11/04 04:09:59;;;;;;;;;37.25;36.25;;;;;12.95;98.21;102101.13;5034606;28;11017;-72
2021/11/04 04:12:55;;;;;;;;;40.50;36.00;;;;;12.98;97.83;102106.06;5032229;28;10437;-72
2021/11/04 04:15:51;;;;;;;;;38.25;36.75;;;;;12.99;98.04;102113.25;5033723;28;10770;-72
2021/11/04 04:18:47;;;;;;;;;41.75;37.25;;;;;12.93;98.47;102115.31;5033614;28;11419;-72
2021/11/04 04:21:14;;;;;;;;;42.50;38.00;;;;;12.97;98.16;102109.97;5032573;28;10691;-71
2021/11/04 04:24:10;;;;;;;;;37.00;35.25;;;;;13.07;97.66;102121.66;5031997;28;11543;-71
2021/11/04 04:27:06;;;;;;;;;38.00;35.75;;;;;13.04;97.47;102116.75;5033398;28;10859;-71
2021/11/04 04:29:34;;;;;;;;;40.75;38.00;;;;;13.05;97.34;102123.13;5033174;28;11424;-71
2021/11/04 04:32:29;;;;;;;;;46.00;39.25;;;;;13.05;97.01;102118.38;5032148;28;10785;-71
2021/11/04 04:35:06;;;;;;;;;41.00;37.50;;;;;13.06;97.45;102122.81;5030643;28;11539;-71
2021/11/04 04:38:01;;;;;;;;;37.75;35.00;;;;;13.08;97.36;102126.09;5029495;28;10835;-71
2021/11/04 04:40:57;;;;;;;;;48.00;40.75;;;;;13.04;97.60;102127.84;5030222;28;10688;-71
2021/11/04 04:43:53;;;;;;;;;45.25;39.50;;;;;13.05;97.89;102132.28;5033335;28;10917;-71
2021/11/04 04:46:49;;;;;;;;;45.25;39.75;;;;;13.06;97.87;102125.59;5031911;28;11112;-71
2021/11/04 04:49:44;;;;;;;;;48.50;41.75;;;;;13.07;97.94;102124.44;5031760;28;10767;-71
2021/11/04 04:52:43;;;;;;;;;43.50;39.00;;;;;13.05;97.59;102129.50;5031610;28;10940;-71
2021/11/04 04:55:39;;;;;;;;;44.50;40.00;;;;;13.14;97.60;102137.91;5030512;28;10925;-71
2021/11/04 04:58:34;;;;;;;;;44.75;37.50;;;;;13.10;97.42;102147.97;5054568;28;11169;-71
2021/11/04 05:01:30;;;;;;;;;54.25;44.25;;;;;13.08;97.12;102148.31;5013313;28;10766;-71
2021/11/04 05:04:26;;;;;;;;;57.25;44.50;;;;;13.19;96.74;102168.34;5014762;28;11192;-70
2021/11/04 05:06:53;;;;;;;;;41.25;38.00;;;;;13.22;96.09;102175.25;5013503;28;11054;-71
2021/11/04 05:09:49;;;;;;;;;52.25;44.25;;;;;13.15;96.51;102184.00;5029660;28;10992;-71
2021/11/04 05:12:45;;;;;;;;;50.50;42.50;;;;;13.24;96.57;102186.88;5032795;28;11220;-72
2021/11/04 05:15:40;;;;;;;;;43.75;39.50;;;;;13.20;96.53;102181.13;5032545;28;11119;-70
2021/11/04 05:18:36;;;;;;;;;55.50;45.50;;;;;13.19;96.92;102192.50;5032842;28;10919;-71
2021/11/04 05:21:47;;;;;;;;;53.50;43.75;;;;;13.27;96.90;102186.28;5033241;28;11144;-71
2021/11/04 05:24:43;;;;;;;;;43.75;38.50;;;;;13.28;97.04;102176.78;5032480;28;11923;-71
2021/11/04 05:27:38;;;;;;;;;53.00;42.25;;;;;13.32;96.52;102183.34;5033733;28;11104;-72
2021/11/04 05:30:34;;;;;;;;;44.25;39.00;;;;;13.37;96.20;102190.75;5030681;28;11161;-71
2021/11/04 05:33:30;;;;;;;;;53.75;44.00;;;;;13.35;96.10;102199.41;5032504;28;11072;-72
2021/11/04 05:36:26;;;;;;;;;51.00;44.50;;;;;13.38;95.95;102207.13;5030737;28;11297;-71
2021/11/04 05:39:22;;;;;;;;;41.25;37.75;;;;;13.43;95.82;102204.22;5032205;28;11090;-71
2021/11/04 05:42:17;;;;;;;;;48.00;40.75;;;;;13.51;95.96;102209.03;5032283;28;10958;-71
2021/11/04 05:45:13;;;;;;;;;37.25;35.25;;;;;13.52;95.86;102204.31;5030505;28;10847;-71
2021/11/04 05:48:08;;;;;;;;;60.25;47.50;;;;;13.58;95.77;102208.59;5030788;28;10767;-71
2021/11/04 05:51:04;;;;;;;;;66.25;53.50;;;;;13.57;95.49;102206.94;5032643;28;11283;-71
2021/11/04 05:54:00;;;;;;;;;48.50;41.25;;;;;13.58;95.79;102195.53;5032263;28;11333;-69
2021/11/04 05:56:56;;;;;;;;;46.50;40.00;;;;;13.83;95.39;102210.75;5033422;28;10656;-69
2021/11/04 05:59:52;;;;;;;;;43.50;39.25;;;;;14.00;94.81;102214.78;5042975;28;11561;-69
2021/11/04 06:02:47;;;;;;;;;33.50;33.25;;;;;13.99;94.71;102210.38;5032262;28;10601;-69
2021/11/04 06:05:43;;;;;;;;;46.50;40.50;;;;;13.98;95.03;102209.56;5031686;28;10542;-67
2021/11/04 06:08:39;;;;;;;;;34.25;32.25;;;;;13.89;94.42;102222.59;5032180;28;10773;-68
2021/11/04 06:11:36;;;;;;;;;44.75;40.25;;;;;13.75;95.07;102227.38;5032280;28;10351;-69
2021/11/04 06:14:31;;;;;;;;;36.00;34.25;;;;;13.68;94.64;102215.88;5032020;28;10671;-68
2021/11/04 06:17:27;;;;;;;;;40.50;35.50;;;;;13.76;94.67;102218.72;5030612;28;10666;-68
2021/11/04 06:20:22;;;;;;;;;38.50;36.00;;;;;13.64;94.81;102219.25;5030500;28;10437;-68
2021/11/04 06:23:19;;;;;;;;;42.50;38.25;;;;;13.76;94.48;102220.69;5034630;28;10534;-68
2021/11/04 06:25:46;;;;;;;;;37.25;34.75;;;;;13.74;94.64;102225.75;5035376;28;10668;-69
2021/11/04 06:28:14;;;;;;;;;32.50;32.50;;;;;13.76;94.42;102229.03;5035820;28;10195;-70
2021/11/04 06:30:42;;;;;;;;;34.25;34.00;;;;;13.69;94.43;102223.91;5035999;28;10140;-68
2021/11/04 06:33:37;;;;;;;;;35.25;33.25;;;;;13.74;94.25;102229.34;5034878;28;10114;-71
2021/11/04 06:36:19;;;;;;;;;31.50;31.50;;;;;13.76;94.19;102245.72;5015985;28;10488;-71
2021/11/04 06:38:46;;;;;;;;;27.75;27.75;;;;;13.65;94.08;102242.34;5023128;28;10263;-70
2021/11/04 06:41:42;;;;;;;;;32.75;31.25;;;;;13.65;94.03;102242.34;5035785;28;10952;-71
2021/11/04 06:44:38;;;;;;;;;38.00;36.25;;;;;13.61;94.29;102239.38;5034933;28;10477;-70
2021/11/04 06:47:50;;;;;;;;;19.50;19.50;;;;;13.62;94.24;102231.84;5039527;28;10209;-70
2021/11/04 06:50:20;;;;;;;;;37.00;33.00;;;;;13.66;94.07;102244.00;5029768;28;10348;-70
2021/11/04 06:53:05;;;;;;;;;33.00;32.75;;;;;13.74;93.59;102234.09;5031969;28;10276;-69
2021/11/04 06:55:35;;;;;;;;;31.50;31.50;;;;;13.63;93.60;102228.75;5032716;28;10117;-70
2021/11/04 06:58:27;;;;;;;;;32.75;30.25;;;;;13.72;93.62;102239.94;5032590;28;10202;-70
2021/11/04 07:00:58;;;;;;;;;31.75;30.50;;;;;13.73;93.90;102243.56;5033643;28;10139;-70
2021/11/04 07:03:30;;;;;;;;;34.75;34.00;;;;;13.77;93.46;102248.16;5048111;28;9903;-71
2021/11/04 07:06:28;;;;;;;;;37.00;35.00;;;;;13.64;94.09;102249.03;5021916;28;10127;-71
2021/11/04 07:09:24;;;;;;;;;33.50;33.50;;;;;13.70;93.86;102247.78;5014591;28;10360;-71
2021/11/04 07:12:20;;;;;;;;;33.75;32.50;;;;;13.74;93.61;102250.75;5014898;28;10304;-70
2021/11/04 07:15:19;;;;;;;;;33.75;32.25;;;;;13.58;94.34;102245.56;5034092;28;10119;-70
2021/11/04 07:18:18;;;;;;;;;33.75;33.00;;;;;13.64;94.41;102251.81;5033655;28;10267;-71
2021/11/04 07:21:31;;;;;;;;;24.50;23.75;;;;;13.58;94.14;102241.97;5034399;28;10204;-72
2021/11/04 07:24:44;;;;;;;;;33.75;33.50;;;;;13.56;94.58;102238.66;5034114;28;10017;-71
2021/11/04 07:27:31;;;;;;;;;31.75;31.00;;;;;13.52;94.81;102248.78;5034801;28;11070;-72
2021/11/04 07:30:28;;;;;;;;;32.50;31.00;;;;;13.42;95.10;102244.28;5014872;28;10040;-73
2021/11/04 07:33:31;;;;;;;;;32.75;32.75;;;;;13.52;95.07;102251.56;5020872;28;10197;-72
2021/11/04 07:36:01;;;;;;;;;28.25;28.00;;;;;13.43;94.50;102253.44;5035086;28;10394;-71
2021/11/04 07:38:58;;;;;;;;;33.50;30.75;;;;;13.48;94.71;102250.53;5034229;28;10246;-71
2021/11/04 07:41:53;;;;;;;;;37.25;32.25;;;;;13.39;94.30;102244.06;5035263;28;10335;-72
2021/11/04 07:44:49;;;;;;;;;32.75;32.75;;;;;13.38;94.77;102243.25;5014284;28;10378;-71
2021/11/04 07:47:46;;;;;;;;;33.75;33.25;;;;;13.59;95.28;102230.53;5039748;28;10599;-69
2021/11/04 07:50:42;;;;;;;;;27.75;26.00;;;;;14.26;100.00;102234.41;5028489;28;10418;-69
2021/11/04 07:53:13;;;;;;;;;32.75;31.75;;;;;14.16;98.64;102241.91;5032814;28;10230;-69
2021/11/04 07:56:09;;;;;;;;;35.00;34.00;;;;;14.00;96.95;102234.25;5033107;28;10129;-69
2021/11/04 07:58:40;;;;;;;;;29.25;29.25;;;;;14.22;98.45;102225.91;5034250;28;10321;-69
2021/11/04 08:01:36;;;;;;;;;32.25;29.50;;;;;14.59;99.56;102221.06;5032499;28;10031;-69
2021/11/04 08:04:03;;;;;;;;;37.50;33.00;;;;;14.38;95.79;102223.53;5034283;28;10235;-70
2021/11/04 08:06:31;;;;;;;;;32.50;30.75;;;;;14.05;93.54;102228.59;5032879;28;10275;-70
2021/11/04 08:09:03;;;;;;;;;28.00;26.50;;;;;14.17;94.46;102228.81;5034368;28;9982;-70
2021/11/04 08:11:31;;;;;;;;;30.00;29.25;;;;;14.10;96.01;102226.47;5033838;28;9977;-70
2021/11/04 08:13:59;;;;;;;;;37.75;32.50;;;;;13.95;94.93;102226.84;5034102;28;10240;-70
2021/11/04 08:16:27;;;;;;;;;34.50;32.75;;;;;13.87;94.42;102228.44;5048896;28;9798;-69
2021/11/04 08:19:05;;;;;;;;;32.00;29.50;;;;;14.34;97.07;102242.84;5033675;28;10134;-70
2021/11/04 08:21:33;;;;;;;;;30.50;29.50;;;;;14.69;97.57;102249.41;5033409;28;10701;-70
2021/11/04 08:24:01;;;;;;;;;32.25;32.25;;;;;14.68;95.62;102253.34;5034071;28;10040;-69
2021/11/04 08:26:30;;;;;;;;;28.50;26.50;;;;;14.60;96.22;102254.13;5032418;28;10043;-68
2021/11/04 08:29:01;;;;;;;;;26.75;26.75;;;;;14.35;92.93;102249.22;5032868;28;9870;-70
2021/11/04 08:31:30;;;;;;;;;28.50;28.50;;;;;14.56;96.31;102261.47;5048945;28;9826;-70
2021/11/04 08:33:58;;;;;;;;;27.50;27.50;;;;;14.75;95.77;102269.59;5032608;28;10616;-69
2021/11/04 08:36:26;;;;;;;;;22.00;21.75;;;;;15.16;97.23;102269.25;5032523;28;9600;-69
2021/11/04 08:38:55;;;;;;;;;32.75;32.25;;;;;14.64;91.94;102282.16;5032593;28;9744;-70
2021/11/04 08:41:23;;;;;;;;;35.25;31.25;;;;;14.23;91.37;102287.94;5032306;28;9886;-69
2021/11/04 08:43:54;;;;;;;;;33.00;32.00;;;;;14.37;95.32;102297.88;5033055;28;9891;-70
2021/11/04 08:46:22;;;;;;;;;30.25;28.25;;;;;15.08;97.96;102299.88;5032316;28;9891;-70
2021/11/04 08:48:50;;;;;;;;;28.00;28.00;;;;;14.72;94.22;102298.06;5033241;28;9646;-70
2021/11/04 08:51:17;;;;;;;;;28.00;27.00;;;;;14.55;91.53;102293.25;5032060;28;9978;-70
2021/11/04 08:53:46;;;;;;;;;24.75;24.25;;;;;14.74;92.68;102285.50;5033352;28;9626;-68
2021/11/04 08:56:28;;;;;;;;;32.75;31.25;;;;;14.29;90.69;102295.03;5033180;28;10374;-69
2021/11/04 08:58:56;;;;;;;;;33.75;33.75;;;;;14.49;94.48;102297.28;5033406;28;9794;-69
2021/11/04 09:01:24;;;;;;;;;41.50;36.00;;;;;14.83;92.52;102293.06;5033050;28;9883;-69
2021/11/04 09:03:55;;;;;;;;;37.75;33.00;;;;;14.33;90.59;102280.16;5032237;28;9944;-69
2021/11/04 09:06:22;;;;;;;;;30.25;30.25;;;;;14.33;91.00;102285.72;5033158;28;10061;-70
2021/11/04 09:08:50;;;;;;;;;31.75;30.50;;;;;14.31;91.56;102276.88;5033397;28;10805;-69
2021/11/04 09:11:18;;;;;;;;;29.50;28.75;;;;;14.33;91.76;102277.34;5032020;28;9728;-69
2021/11/04 09:14:04;;;;;;;;;36.00;33.50;;;;;14.60;95.01;102279.19;5033268;28;9642;-69
2021/11/04 09:16:47;;;;;;;;;30.00;30.00;;;;;14.53;92.10;102278.00;5031642;28;9882;-70
2021/11/04 09:19:17;;;;;;;;;35.50;31.50;;;;;14.22;90.98;102284.34;5032828;28;10033;-70
2021/11/04 09:21:45;;;;;;;;;30.00;29.00;;;;;14.55;92.28;102286.84;5031794;28;9873;-70
2021/11/04 09:24:13;;;;;;;;;29.00;28.00;;;;;14.12;88.76;102274.28;5032930;28;9623;-69
2021/11/04 09:26:41;;;;;;;;;29.25;29.00;;;;;14.43;90.40;102274.31;5032867;28;9889;-69
2021/11/04 09:29:10;;;;;;;;;30.25;30.25;;;;;14.28;91.12;102277.50;5031846;28;10041;-69
2021/11/04 09:31:39;;;;;;;;;36.25;33.50;;;;;14.41;91.72;102278.56;5031782;28;10029;-69
2021/11/04 09:34:07;;;;;;;;;32.00;32.00;;;;;14.66;91.32;102279.88;5033122;28;9890;-69
2021/11/04 09:36:36;;;;;;;;;30.00;30.00;;;;;14.76;90.85;102287.94;5032764;28;9889;-69
2021/11/04 09:39:05;;;;;;;;;31.25;27.25;;;;;14.98;91.97;102282.31;5032687;28;9872;-69
2021/11/04 09:41:33;;;;;;;;;34.75;33.25;;;;;14.98;89.09;102276.75;5032849;28;9879;-69
2021/11/04 09:44:03;;;;;;;;;38.00;35.00;;;;;14.95;88.88;102276.53;5031308;28;9744;-70
2021/11/04 09:46:34;;;;;;;;;32.50;31.75;;;;;15.16;88.40;102265.63;5047562;28;10109;-71
2021/11/04 09:49:30;;;;;;;;;30.50;29.50;;;;;15.21;89.21;102263.53;5029903;28;9690;-71
2021/11/04 09:51:59;;;;;;;;;30.50;30.50;;;;;15.05;88.56;102258.75;5031685;28;10489;-71
2021/11/04 09:54:55;;;;;;;;;30.25;30.00;;;;;15.35;87.40;102252.25;5013584;28;9725;-71
2021/11/04 09:57:26;;;;;;;;;32.00;30.00;;;;;15.21;85.27;102251.56;5035304;28;9913;-72
2021/11/04 09:59:55;;;;;;;;;32.25;31.00;;;;;15.14;85.55;102249.25;5034725;28;9715;-71
2021/11/04 10:03:09;;;;;;;;;30.75;30.50;;;;;15.32;87.16;102246.50;5020944;28;9722;-71
2021/11/04 10:06:05;;;;;;;;;41.00;35.25;;;;;15.12;85.08;102243.19;5036159;28;10357;-71
2021/11/04 10:09:04;;;;;;;;;38.25;35.50;;;;;14.91;83.10;102242.13;5059472;28;9915;-71
2021/11/04 10:12:05;;;;;;;;;42.00;38.50;;;;;15.09;86.04;102243.81;5034493;28;9905;-71
2021/11/04 10:15:15;;;;;;;;;40.00;37.25;;;;;15.14;84.96;102240.88;5035700;28;9998;-71
2021/11/04 10:17:45;;;;;;;;;48.50;40.25;;;;;15.27;86.12;102237.16;5036010;28;9988;-71
2021/11/04 10:20:27;;;;;;;;;64.50;53.25;;;;;15.59;88.14;102246.19;5036016;28;10223;-69
2021/11/04 10:23:25;;;;;;;;;46.00;40.25;;;;;15.63;85.93;102249.19;5019170;28;11553;-70
2021/11/04 10:26:08;;;;;;;;;83.00;74.75;;;;;15.61;85.47;102249.50;5034469;28;10282;-70
2021/11/04 10:29:06;;;;;;;;;354.50;342.50;;;;;15.51;86.10;102253.41;5033797;28;12356;-71
2021/11/04 10:31:48;;;;;;;;;48.75;40.25;;;;;15.24;83.00;102253.69;5016057;28;8852;-70
2021/11/04 10:34:38;;;;;;;;;36.00;34.00;;;;;15.24;83.40;102254.50;5016213;28;10149;-71
2021/11/04 10:37:44;;;;;;;;;41.75;37.00;;;;;15.10;83.27;102259.38;5016697;28;10617;-70
2021/11/04 10:40:43;;;;;;;;;36.50;34.75;;;;;15.05;83.94;102261.53;5035621;28;10239;-69
2021/11/04 10:43:10;;;;;;;;;40.50;35.25;;;;;15.06;84.04;102257.59;5050930;28;9954;-72
2021/11/04 10:46:03;;;;;;;;;46.00;39.00;;;;;14.84;83.96;102252.91;5035045;28;10091;-71
2021/11/04 10:48:34;;;;;;;;;28.50;27.00;;;;;14.91;83.88;102256.06;5015851;28;10241;-71
2021/11/04 10:51:30;;;;;;;;;37.00;33.75;;;;;14.82;84.58;102258.00;5032239;28;9719;-70
2021/11/04 10:54:26;;;;;;;;;40.50;37.00;;;;;14.69;84.86;102254.16;5035494;28;9965;-73
2021/11/04 10:57:37;;;;;;;;;39.75;35.00;;;;;14.87;83.92;102255.88;5033965;28;10232;-72
2021/11/04 11:00:40;;;;;;;;;32.00;31.75;;;;;14.90;83.69;102255.25;5033354;28;10123;-71
2021/11/04 11:03:37;;;;;;;;;33.00;32.75;;;;;14.90;83.90;102260.81;5034570;28;10204;-69
2021/11/04 11:06:07;;;;;;;;;33.00;32.75;;;;;14.88;83.98;102251.16;5034666;28;10103;-71
2021/11/04 11:09:05;;;;;;;;;35.00;33.25;;;;;14.80;83.72;102251.91;5035146;28;9768;-70
2021/11/04 11:11:35;;;;;;;;;39.00;36.25;;;;;14.96;83.91;102253.97;5034890;28;9789;-71
2021/11/04 11:14:38;;;;;;;;;35.75;33.50;;;;;14.96;84.03;102251.19;5034760;28;10173;-71
2021/11/04 11:17:06;;;;;;;;;30.50;30.50;;;;;15.06;83.40;102257.59;5035164;28;9771;-71
2021/11/04 11:20:02;;;;;;;;;23.25;23.00;;;;;15.02;83.33;102246.25;5032879;28;9806;-71
2021/11/04 11:22:31;;;;;;;;;36.00;34.25;;;;;15.00;83.25;102251.34;5035022;28;10563;-71
2021/11/04 11:24:59;;;;;;;;;33.25;32.00;;;;;15.12;82.89;102250.72;5034870;28;9870;-72
2021/11/04 11:27:55;;;;;;;;;29.00;29.00;;;;;15.08;83.89;102252.50;5040616;28;9544;-71
2021/11/04 11:31:09;;;;;;;;;30.25;30.25;;;;;15.13;82.65;102242.03;5013996;28;9809;-72
2021/11/04 11:33:38;;;;;;;;;32.50;32.00;;;;;14.98;82.91;102243.31;5034985;28;9767;-72
2021/11/04 11:36:34;;;;;;;;;35.75;33.50;;;;;15.02;82.34;102243.47;5033979;28;10627;-72
2021/11/04 11:39:46;;;;;;;;;33.25;33.25;;;;;15.13;82.41;102246.78;5034261;28;9858;-71
2021/11/04 11:43:03;;;;;;;;;40.75;35.50;;;;;15.10;83.01;102250.22;5016005;28;10051;-71
2021/11/04 11:45:37;;;;;;;;;41.25;37.00;;;;;14.91;84.27;102248.53;5034063;28;9922;-72
2021/11/04 11:48:33;;;;;;;;;38.25;36.00;;;;;14.95;83.74;102243.13;5034105;28;9887;-73
2021/11/04 11:51:01;;;;;;;;;28.00;27.00;;;;;14.90;83.66;102248.84;5034167;28;10023;-72
2021/11/04 11:53:57;;;;;;;;;34.00;32.00;;;;;14.84;83.49;102250.13;5032407;28;9789;-71
2021/11/04 11:57:10;;;;;;;;;36.75;35.75;;;;;14.82;83.68;102252.44;5033680;28;9965;-72
2021/11/04 12:00:07;;;;;;;;;37.50;35.25;;;;;14.75;84.26;102250.09;5033906;28;10175;-73
2021/11/04 12:02:47;;;;;;;;;33.75;31.75;;;;;14.76;84.09;102250.94;5033518;28;9912;-73
2021/11/04 12:05:37;;;;;;;;;31.50;31.50;;;;;14.71;83.99;102249.91;5031104;28;9769;-73
2021/11/04 12:08:38;;;;;;;;;27.00;26.00;;;;;14.69;84.76;102243.84;5033569;28;9791;-71
2021/11/04 12:11:34;;;;;;;;;30.00;25.00;;;;;14.73;84.62;102244.03;5013138;28;10064;-71
2021/11/04 12:14:31;;;;;;;;;34.25;33.75;;;;;14.65;84.53;102239.25;5018097;28;9766;-71
2021/11/04 12:17:27;;;;;;;;;35.25;33.00;;;;;14.59;85.13;102232.19;5033208;28;10208;-73
2021/11/04 12:20:09;;;;;;;;;30.75;30.75;;;;;14.62;85.34;102235.13;5033681;28;11898;-72
2021/11/04 12:22:40;;;;;;;;;36.25;33.00;;;;;14.61;85.30;102233.50;5032232;28;10127;-73
2021/11/04 12:25:36;;;;;;;;;31.00;31.00;;;;;14.62;85.12;102226.78;5032431;28;10218;-72
2021/11/04 12:28:49;;;;;;;;;33.00;31.50;;;;;14.71;85.41;102226.81;5036329;28;10254;-72
2021/11/04 12:31:45;;;;;;;;;42.00;36.50;;;;;14.74;85.02;102217.84;5045308;28;10855;-72
2021/11/04 12:34:42;;;;;;;;;36.00;34.75;;;;;14.69;85.69;102220.75;5032798;28;10212;-73
2021/11/04 12:37:13;;;;;;;;;33.50;33.25;;;;;14.74;85.14;102229.78;5033778;28;9949;-73
2021/11/04 12:39:46;;;;;;;;;31.25;30.75;;;;;14.78;85.00;102237.50;5033378;28;10006;-73
2021/11/04 12:42:45;;;;;;;;;33.00;32.50;;;;;14.79;85.17;102236.34;5031929;28;10063;-73
2021/11/04 12:45:45;;;;;;;;;32.50;32.50;;;;;14.76;84.74;102229.47;5029627;28;10047;-73
2021/11/04 12:48:55;;;;;;;;;34.75;34.00;;;;;14.75;84.75;102236.19;5032543;28;9911;-73
2021/11/04 12:51:55;;;;;;;;;44.00;38.75;;;;;14.53;85.71;102234.28;5020294;28;9909;-73